createdAt,value
2022-12-15T00:03:53.723Z,20.88
2022-12-15T00:08:56.103Z,21.27
2022-12-15T00:13:58.446Z,21.13
2022-12-15T00:19:00.246Z,19.60
2022-12-15T00:24:02.816Z,21.83
2022-12-15T00:29:05.392Z,22.70
2022-12-15T00:34:07.454Z,20.90
2022-12-15T00:39:09.261Z,21.10
2022-12-15T00:44:15.731Z,21.57
2022-12-15T00:49:19.169Z,22.75
2022-12-15T00:54:20.923Z,22.70
2022-12-15T00:59:22.589Z,23.37
2022-12-15T01:04:24.408Z,21.98
2022-12-15T01:09:26.362Z,20.85
2022-12-15T01:14:28.424Z,21.67
2022-12-15T01:19:30.182Z,21.65
2022-12-15T01:24:31.879Z,20.98
2022-12-15T01:29:33.559Z,22.33
2022-12-15T01:34:35.333Z,21.73
2022-12-15T01:39:37.170Z,22.67
2022-12-15T01:44:38.984Z,23.33
2022-12-15T01:49:42.572Z,22.67
2022-12-15T01:54:51.806Z,22.30
2022-12-15T01:59:58.152Z,22.42
2022-12-15T02:05:01.374Z,21.77
2022-12-15T02:10:06.765Z,21.20
2022-12-15T02:15:17.874Z,20.63
2022-12-15T02:20:22.455Z,21.88
2022-12-15T02:26:18.605Z,22.27
2022-12-15T02:31:34.555Z,20.13
2022-12-15T02:36:39.858Z,21.05
2022-12-15T02:41:44.425Z,19.63
2022-12-15T02:47:10.522Z,19.65
2022-12-15T02:52:20.779Z,20.92
2022-12-15T02:57:40.867Z,20.88
2022-12-15T03:02:47.448Z,20.00
2022-12-15T03:07:51.236Z,19.90
2022-12-15T03:12:53.156Z,20.00
2022-12-15T03:17:54.902Z,19.77
2022-12-15T03:22:56.586Z,20.10
2022-12-15T03:27:58.360Z,20.17
2022-12-15T03:33:00.035Z,19.70
2022-12-15T03:38:01.838Z,19.03
2022-12-15T03:43:03.543Z,19.30
2022-12-15T03:48:05.355Z,19.30
2022-12-15T03:53:07.294Z,18.45
2022-12-15T03:58:09.074Z,19.50
2022-12-15T04:03:11.845Z,19.52
2022-12-15T04:08:13.659Z,21.38
2022-12-15T04:13:15.364Z,18.95
2022-12-15T04:18:17.185Z,18.00
2022-12-15T04:23:18.938Z,19.17
2022-12-15T04:28:21.144Z,19.30
2022-12-15T04:33:29.114Z,18.20
2022-12-15T04:38:32.502Z,19.65
2022-12-15T04:43:34.653Z,19.37
2022-12-15T04:48:36.478Z,19.17
2022-12-15T04:53:38.273Z,18.88
2022-12-15T04:58:40.078Z,19.70
2022-12-15T05:03:42.157Z,20.20
2022-12-15T05:08:43.827Z,20.33
2022-12-15T05:13:45.623Z,21.58
2022-12-15T05:18:47.353Z,19.33
2022-12-15T05:23:49.051Z,20.08
2022-12-15T05:28:50.786Z,18.95
2022-12-15T05:33:53.667Z,20.98
2022-12-15T05:38:55.359Z,20.63
2022-12-15T05:43:57.047Z,18.30
2022-12-15T05:48:58.757Z,20.85
2022-12-15T05:54:00.521Z,18.53
2022-12-15T05:59:02.752Z,17.75
2022-12-15T06:04:04.603Z,17.23
2022-12-15T06:09:06.713Z,17.13
2022-12-15T06:14:09.299Z,17.45
2022-12-15T06:19:11.027Z,17.90
2022-12-15T06:24:12.804Z,17.92
2022-12-15T06:29:14.745Z,19.10
2022-12-15T06:34:17.534Z,19.10
2022-12-15T06:39:19.330Z,18.43
2022-12-15T06:44:21.127Z,19.88
2022-12-15T06:49:22.860Z,19.47
2022-12-15T06:54:24.591Z,21.92
2022-12-15T06:59:26.284Z,20.50
2022-12-15T07:04:28.107Z,21.27
2022-12-15T07:09:29.859Z,21.50
2022-12-15T07:14:31.542Z,19.48
2022-12-15T07:19:33.219Z,20.75
2022-12-15T07:24:35.007Z,21.17
2022-12-15T07:29:36.710Z,21.25
2022-12-15T07:34:38.598Z,22.03
2022-12-15T07:39:40.306Z,21.15
2022-12-15T07:44:42.054Z,22.63
2022-12-15T07:49:43.771Z,22.23
2022-12-15T07:54:45.531Z,22.83
2022-12-15T07:59:47.227Z,21.08
2022-12-15T08:04:49.215Z,21.80
2022-12-15T08:09:52.815Z,21.58
2022-12-15T08:14:54.580Z,21.27
2022-12-15T08:19:58.853Z,21.85
2022-12-15T08:25:00.767Z,21.10
2022-12-15T08:30:02.662Z,22.20
2022-12-15T08:35:04.633Z,21.42
2022-12-15T08:40:07.479Z,19.98
2022-12-15T08:45:10.139Z,20.60
2022-12-15T08:50:11.917Z,21.40
2022-12-15T08:55:16.777Z,20.10
2022-12-15T09:00:22.686Z,19.45
2022-12-15T09:05:24.531Z,20.47
2022-12-15T09:10:26.295Z,19.17
2022-12-15T09:15:51.935Z,17.53
2022-12-15T09:20:49.851Z,14.77
2022-12-15T09:25:51.710Z,12.73
2022-12-15T09:30:53.587Z,13.52
2022-12-15T09:35:55.339Z,13.10
2022-12-15T09:40:57.154Z,12.50
2022-12-15T09:46:06.312Z,13.23
2022-12-15T09:51:16.494Z,13.60
2022-12-15T09:56:31.890Z,13.55
2022-12-15T10:01:55.756Z,14.18
2022-12-15T10:06:57.710Z,15.18
2022-12-15T10:12:07.295Z,14.40
2022-12-15T10:17:26.955Z,15.80
2022-12-15T10:22:35.044Z,15.80
2022-12-15T10:27:55.600Z,16.17
2022-12-15T10:32:57.529Z,15.93
2022-12-15T10:38:02.462Z,17.10
2022-12-15T10:43:24.281Z,17.50
2022-12-15T10:48:25.968Z,18.58
2022-12-15T10:54:02.614Z,17.80
2022-12-15T10:59:31.275Z,18.05
2022-12-15T11:04:33.337Z,17.40
2022-12-15T11:09:37.600Z,17.38
2022-12-15T11:14:49.813Z,18.25
2022-12-15T11:20:03.493Z,17.40
2022-12-15T11:25:25.611Z,16.50
2022-12-15T11:30:38.352Z,17.95
2022-12-15T11:36:12.199Z,17.97
2022-12-15T11:41:34.913Z,16.73
2022-12-15T11:47:08.381Z,17.85
2022-12-15T11:52:20.989Z,17.52
2022-12-15T11:57:50.512Z,15.90
2022-12-15T12:03:01.363Z,16.67
2022-12-15T12:08:12.084Z,15.55
2022-12-15T12:13:35.365Z,16.63
2022-12-15T12:18:43.562Z,14.53
2022-12-15T12:23:51.852Z,15.93
2022-12-15T12:29:06.514Z,15.45
2022-12-15T12:34:17.966Z,14.55
2022-12-15T12:39:25.402Z,14.57
2022-12-15T12:44:33.797Z,15.73
2022-12-15T12:49:44.204Z,20.65
2022-12-15T12:54:54.907Z,16.67
2022-12-15T13:00:34.895Z,15.38
2022-12-15T13:05:38.528Z,15.50
2022-12-15T13:10:45.625Z,14.07
2022-12-15T13:21:35.834Z,14.67
2022-12-15T13:26:44.688Z,14.23
2022-12-15T13:31:51.010Z,16.00
2022-12-15T13:36:55.798Z,15.48
2022-12-15T13:47:31.448Z,13.80
2022-12-15T13:53:17.422Z,12.67
2022-12-15T13:58:13.483Z,12.83
2022-12-15T14:03:15.177Z,13.68
2022-12-15T14:08:17.649Z,13.45
2022-12-15T14:13:27.278Z,12.33
2022-12-15T14:18:37.253Z,14.70
2022-12-15T14:24:10.914Z,13.60
2022-12-15T14:29:06.204Z,14.67
2022-12-15T14:34:20.015Z,15.45
2022-12-15T14:39:30.941Z,16.17
2022-12-15T14:44:39.427Z,14.13
2022-12-15T14:49:43.404Z,14.83
2022-12-15T14:54:57.318Z,13.70
2022-12-15T14:59:59.528Z,13.98
2022-12-15T15:03:12.306Z,14.40
2022-12-15T15:05:06.180Z,14.60
2022-12-15T15:10:25.092Z,15.18
2022-12-15T15:15:27.102Z,13.47
2022-12-15T15:20:31.804Z,13.75
2022-12-15T15:25:39.420Z,13.70
2022-12-15T15:30:56.712Z,12.68
2022-12-15T15:36:01.149Z,11.85
2022-12-15T15:41:19.509Z,11.55
2022-12-15T15:46:24.007Z,12.93
2022-12-15T15:51:27.145Z,12.60
2022-12-15T15:56:28.888Z,13.18
2022-12-15T16:01:30.752Z,14.48
2022-12-15T16:06:32.694Z,12.45
2022-12-15T16:11:34.496Z,13.20
2022-12-15T16:16:36.226Z,12.98
2022-12-15T16:21:39.634Z,13.07
2022-12-15T16:26:47.113Z,13.13
2022-12-15T16:31:48.948Z,13.35
2022-12-15T16:36:50.899Z,12.50
2022-12-15T16:41:54.833Z,13.73
2022-12-15T16:46:57.877Z,13.07
2022-12-15T16:51:59.664Z,13.80
2022-12-15T16:57:01.462Z,13.57
2022-12-15T17:02:27.897Z,14.63
2022-12-15T17:07:29.978Z,13.88
2022-12-15T17:12:31.955Z,13.50
2022-12-15T17:17:33.659Z,15.05
2022-12-15T17:22:36.262Z,14.63
2022-12-15T17:27:37.974Z,14.02
2022-12-15T17:32:39.717Z,14.83
2022-12-15T17:37:42.186Z,14.75
2022-12-15T17:42:44.721Z,13.30
2022-12-15T17:47:46.714Z,15.32
2022-12-15T17:52:48.718Z,13.80
2022-12-15T17:57:51.725Z,14.67
2022-12-15T18:02:54.909Z,11.82
2022-12-15T18:08:00.357Z,12.40
2022-12-15T18:13:02.369Z,12.73
2022-12-15T18:18:04.150Z,13.35
2022-12-15T18:23:21.433Z,12.03
2022-12-15T18:28:29.309Z,12.47
2022-12-15T18:33:31.671Z,13.00
2022-12-15T18:38:33.674Z,13.90
2022-12-15T18:43:35.642Z,11.35
2022-12-15T18:48:37.552Z,11.43
2022-12-15T18:53:40.350Z,13.27
2022-12-15T18:58:42.176Z,11.95
2022-12-15T19:03:43.928Z,11.00
2022-12-15T19:08:45.969Z,12.05
2022-12-15T19:13:47.672Z,13.10
2022-12-15T19:18:49.378Z,13.38
2022-12-15T19:23:51.099Z,11.67
2022-12-15T19:28:52.837Z,12.85
2022-12-15T19:33:54.603Z,10.50
2022-12-15T19:38:56.414Z,10.23
2022-12-15T19:43:58.131Z,11.07
2022-12-15T19:48:59.845Z,10.23
2022-12-15T19:54:01.607Z,10.57
2022-12-15T19:59:03.325Z,10.27
2022-12-15T20:04:05.049Z,9.95
2022-12-15T20:09:10.595Z,10.73
2022-12-15T20:14:14.274Z,10.52
2022-12-15T20:19:16.073Z,11.27
2022-12-15T20:24:19.322Z,9.98
2022-12-15T20:29:28.101Z,10.43
2022-12-15T20:34:29.853Z,10.63
2022-12-15T20:39:31.549Z,10.20
2022-12-15T20:44:33.305Z,10.10
2022-12-15T20:49:35.110Z,9.75
2022-12-15T20:54:36.858Z,10.98
2022-12-15T20:59:38.906Z,10.20
2022-12-15T21:04:40.681Z,10.38
2022-12-15T21:09:42.426Z,10.57
2022-12-15T21:14:45.048Z,9.82
2022-12-15T21:19:47.639Z,10.23
2022-12-15T21:24:52.701Z,9.32
2022-12-15T21:29:56.135Z,9.38
2022-12-15T21:34:57.979Z,9.77
2022-12-15T21:40:00.171Z,8.55
2022-12-15T21:45:02.671Z,8.52
2022-12-15T21:50:04.743Z,6.90
2022-12-15T21:55:15.260Z,7.55
2022-12-15T22:00:18.609Z,6.93
2022-12-15T22:05:23.963Z,5.77
2022-12-15T22:10:25.733Z,5.63
2022-12-15T22:15:29.874Z,4.57
2022-12-15T22:20:31.784Z,4.22
2022-12-15T22:25:33.633Z,3.60
2022-12-15T22:30:35.499Z,4.47
2022-12-15T22:35:37.287Z,4.18
2022-12-15T22:40:39.627Z,4.78
2022-12-15T22:45:42.940Z,4.40
2022-12-15T22:50:44.849Z,5.10
2022-12-15T22:55:49.052Z,4.72
2022-12-15T23:00:54.683Z,5.47
2022-12-15T23:05:56.856Z,4.70
2022-12-15T23:11:00.882Z,5.22
2022-12-15T23:16:04.128Z,5.68
2022-12-15T23:21:06.095Z,5.10
2022-12-15T23:26:07.809Z,5.53
2022-12-15T23:31:10.509Z,5.67
2022-12-15T23:36:12.838Z,4.97
2022-12-15T23:41:16.182Z,5.90
2022-12-15T23:46:17.955Z,5.90
2022-12-15T23:51:20.722Z,5.43
2022-12-15T23:56:25.875Z,5.23
